createdAt,value
2022-10-26T00:01:04.855Z,11.00
2022-10-26T00:03:32.072Z,11.00
2022-10-26T00:06:04.201Z,11.00
2022-10-26T00:08:31.394Z,11.00
2022-10-26T00:10:58.588Z,11.00
2022-10-26T00:13:25.742Z,11.00
2022-10-26T00:15:53.042Z,11.00
2022-10-26T00:18:20.341Z,11.00
2022-10-26T00:20:47.473Z,11.10
2022-10-26T00:23:14.639Z,11.10
2022-10-26T00:25:41.786Z,11.10
2022-10-26T00:28:08.921Z,11.10
2022-10-26T00:30:39.102Z,11.00
2022-10-26T00:33:06.238Z,11.00
2022-10-26T00:35:45.707Z,11.00
2022-10-26T00:38:13.601Z,11.10
2022-10-26T00:40:40.886Z,11.10
2022-10-26T00:43:34.691Z,11.10
2022-10-26T00:46:02.145Z,11.10
2022-10-26T00:48:31.762Z,11.10
2022-10-26T00:50:59.971Z,11.10
2022-10-26T00:53:27.236Z,11.10
2022-10-26T00:55:54.414Z,11.10
2022-10-26T00:58:21.629Z,11.10
2022-10-26T01:00:48.860Z,11.10
2022-10-26T01:03:16.104Z,11.10
2022-10-26T01:05:43.886Z,11.10
2022-10-26T01:08:11.094Z,11.10
2022-10-26T01:10:38.978Z,11.20
2022-10-26T01:13:06.127Z,11.20
2022-10-26T01:16:13.024Z,11.20
2022-10-26T01:19:04.003Z,11.10
2022-10-26T01:21:46.216Z,11.10
2022-10-26T01:24:19.243Z,11.10
2022-10-26T01:27:04.306Z,11.10
2022-10-26T01:29:31.437Z,11.10
2022-10-26T01:32:11.959Z,11.10
2022-10-26T01:34:44.605Z,11.10
2022-10-26T01:37:19.487Z,11.10
2022-10-26T01:39:49.745Z,11.10
2022-10-26T01:42:16.987Z,11.20
2022-10-26T01:44:47.615Z,11.20
2022-10-26T01:47:15.705Z,11.20
2022-10-26T01:49:45.221Z,11.10
2022-10-26T01:52:12.366Z,11.10
2022-10-26T01:54:39.504Z,11.10
2022-10-26T01:57:08.336Z,11.10
2022-10-26T01:59:35.494Z,11.10
2022-10-26T02:02:37.515Z,11.20
2022-10-26T02:05:38.699Z,11.20
2022-10-26T02:08:32.908Z,11.20
2022-10-26T02:11:09.222Z,11.20
2022-10-26T02:16:49.431Z,11.20
2022-10-26T02:19:42.375Z,11.20
2022-10-26T02:22:14.751Z,11.20
2022-10-26T02:24:41.906Z,11.20
2022-10-26T02:27:12.186Z,11.20
2022-10-26T02:29:39.341Z,11.10
2022-10-26T02:32:06.806Z,11.10
2022-10-26T02:34:33.958Z,11.20
2022-10-26T02:37:01.195Z,11.20
2022-10-26T02:39:29.365Z,11.20
2022-10-26T02:41:56.494Z,11.20
2022-10-26T02:44:25.478Z,11.10
2022-10-26T02:46:52.796Z,11.20
2022-10-26T02:49:19.933Z,11.20
2022-10-26T02:52:03.263Z,11.20
2022-10-26T02:54:41.784Z,11.20
2022-10-26T02:57:12.697Z,11.20
2022-10-26T02:59:41.975Z,11.10
2022-10-26T03:02:09.195Z,11.20
2022-10-26T03:04:36.427Z,11.10
2022-10-26T03:07:03.553Z,11.10
2022-10-26T03:09:30.769Z,11.10
2022-10-26T03:11:57.936Z,11.20
2022-10-26T03:14:25.137Z,11.20
2022-10-26T03:19:24.416Z,11.10
2022-10-26T03:21:51.588Z,11.20
2022-10-26T03:24:18.807Z,11.20
2022-10-26T03:26:45.945Z,11.20
2022-10-26T03:29:13.075Z,11.20
2022-10-26T03:31:40.203Z,11.20
2022-10-26T03:34:07.343Z,11.20
2022-10-26T03:36:34.531Z,11.20
2022-10-26T03:39:01.764Z,11.20
2022-10-26T03:41:28.896Z,11.20
2022-10-26T03:43:56.025Z,11.20
2022-10-26T03:46:23.137Z,11.20
2022-10-26T03:48:50.258Z,11.20
2022-10-26T03:51:17.390Z,11.20
2022-10-26T03:53:44.535Z,11.20
2022-10-26T03:56:11.686Z,11.20
2022-10-26T03:58:38.831Z,11.20
2022-10-26T04:01:06.036Z,11.30
2022-10-26T04:03:33.192Z,11.20
2022-10-26T04:06:01.416Z,11.30
2022-10-26T04:08:28.665Z,11.30
2022-10-26T04:10:55.866Z,11.30
2022-10-26T04:13:23.027Z,11.30
2022-10-26T04:15:50.231Z,11.30
2022-10-26T04:18:17.404Z,11.30
2022-10-26T04:20:44.524Z,11.30
2022-10-26T04:23:14.446Z,11.30
2022-10-26T04:25:42.655Z,11.30
2022-10-26T04:28:10.348Z,11.30
2022-10-26T04:30:37.810Z,11.30
2022-10-26T04:33:05.367Z,11.40
2022-10-26T04:35:32.621Z,11.30
2022-10-26T04:38:00.518Z,11.40
2022-10-26T04:40:28.544Z,11.40
2022-10-26T04:42:55.722Z,11.40
2022-10-26T04:45:22.899Z,11.40
2022-10-26T04:48:00.666Z,11.40
2022-10-26T04:50:28.476Z,11.40
2022-10-26T04:52:55.838Z,11.40
2022-10-26T04:55:22.961Z,11.40
2022-10-26T04:57:50.438Z,11.40
2022-10-26T05:00:17.917Z,11.40
2022-10-26T05:02:45.124Z,11.40
2022-10-26T05:05:14.961Z,11.40
2022-10-26T05:07:42.407Z,11.40
2022-10-26T05:10:09.790Z,11.40
2022-10-26T05:12:36.924Z,11.40
2022-10-26T05:15:06.479Z,11.40
2022-10-26T05:17:35.704Z,11.40
2022-10-26T05:20:05.965Z,11.40
2022-10-26T05:22:33.138Z,11.40
2022-10-26T05:25:00.263Z,11.40
2022-10-26T05:27:27.496Z,11.40
2022-10-26T05:29:54.658Z,11.40
2022-10-26T05:32:21.847Z,11.40
2022-10-26T05:34:49.021Z,11.40
2022-10-26T05:37:16.143Z,11.40
2022-10-26T05:39:45.967Z,11.40
2022-10-26T05:42:13.109Z,11.40
2022-10-26T05:44:40.315Z,11.40
2022-10-26T05:47:07.508Z,11.40
2022-10-26T05:49:37.143Z,11.40
2022-10-26T05:52:05.155Z,11.40
2022-10-26T05:54:32.423Z,11.40
2022-10-26T05:56:59.988Z,11.40
2022-10-26T05:59:27.515Z,11.40
2022-10-26T06:02:06.792Z,11.40
2022-10-26T06:04:47.816Z,11.40
2022-10-26T06:07:16.941Z,11.40
2022-10-26T06:09:47.858Z,11.40
2022-10-26T06:12:18.535Z,11.40
2022-10-26T06:14:47.414Z,11.40
2022-10-26T06:17:26.640Z,11.40
2022-10-26T06:20:21.256Z,11.40
2022-10-26T06:22:56.157Z,11.40
2022-10-26T06:25:54.795Z,11.40
2022-10-26T06:28:47.423Z,11.40
2022-10-26T06:31:22.874Z,11.40
2022-10-26T06:34:02.631Z,11.40
2022-10-26T06:36:30.124Z,11.40
2022-10-26T06:39:02.651Z,11.40
2022-10-26T06:41:33.947Z,11.40
2022-10-26T06:44:02.699Z,11.40
2022-10-26T06:46:41.744Z,11.50
2022-10-26T06:49:30.601Z,11.50
2022-10-26T06:52:19.444Z,11.50
2022-10-26T06:54:54.563Z,11.60
2022-10-26T06:57:51.583Z,11.50
2022-10-26T07:00:23.206Z,11.60
2022-10-26T07:02:53.761Z,11.60
2022-10-26T07:05:21.373Z,11.70
2022-10-26T07:07:48.961Z,11.70
2022-10-26T07:10:16.563Z,11.70
2022-10-26T07:12:43.995Z,11.80
2022-10-26T07:15:12.071Z,11.80
2022-10-26T07:17:45.843Z,11.80
2022-10-26T07:20:16.141Z,11.80
2022-10-26T07:22:43.409Z,11.80
2022-10-26T07:25:12.237Z,11.90
2022-10-26T07:27:39.486Z,11.90
2022-10-26T07:30:07.199Z,12.00
2022-10-26T07:32:38.510Z,12.00
2022-10-26T07:35:05.887Z,12.00
2022-10-26T07:37:33.066Z,12.10
2022-10-26T07:40:05.541Z,12.10
2022-10-26T07:42:36.617Z,12.20
2022-10-26T07:45:04.496Z,12.30
2022-10-26T07:47:31.814Z,12.30
2022-10-26T07:49:59.115Z,12.30
2022-10-26T07:52:26.339Z,12.30
2022-10-26T07:54:53.648Z,12.40
2022-10-26T07:57:21.121Z,12.40
2022-10-26T07:59:50.735Z,12.50
2022-10-26T08:02:19.204Z,12.50
2022-10-26T08:04:46.486Z,12.50
2022-10-26T08:07:15.130Z,12.60
2022-10-26T08:09:42.428Z,12.60
2022-10-26T08:12:09.632Z,12.60
2022-10-26T08:14:36.839Z,12.70
2022-10-26T08:17:04.073Z,12.70
2022-10-26T08:19:31.330Z,12.70
2022-10-26T08:21:58.673Z,12.80
2022-10-26T08:24:26.062Z,12.90
2022-10-26T08:26:53.396Z,13.00
2022-10-26T08:29:20.757Z,13.00
2022-10-26T08:31:48.430Z,13.10
2022-10-26T08:34:24.302Z,13.20
2022-10-26T08:36:51.555Z,13.30
2022-10-26T08:39:21.332Z,13.50
2022-10-26T08:41:54.620Z,13.60
2022-10-26T08:44:41.506Z,13.70
2022-10-26T08:47:25.362Z,13.80
2022-10-26T08:49:59.660Z,13.80
2022-10-26T08:52:29.640Z,13.90
2022-10-26T08:55:06.108Z,14.00
2022-10-26T08:57:45.581Z,14.00
2022-10-26T09:00:15.949Z,14.10
2022-10-26T09:02:43.141Z,14.20
2022-10-26T09:05:16.674Z,14.30
2022-10-26T09:07:55.773Z,14.40
2022-10-26T09:10:39.391Z,14.60
2022-10-26T09:13:25.657Z,14.70
2022-10-26T09:16:19.792Z,14.80
2022-10-26T09:19:10.085Z,15.00
2022-10-26T09:21:48.915Z,15.00
2022-10-26T09:24:33.008Z,15.20
2022-10-26T09:27:31.738Z,15.30
2022-10-26T09:30:13.191Z,15.40
2022-10-26T09:32:48.530Z,15.50
2022-10-26T09:35:20.444Z,15.60
2022-10-26T09:38:01.106Z,15.60
2022-10-26T09:40:31.641Z,15.70
2022-10-26T09:43:05.927Z,15.90
2022-10-26T09:45:34.360Z,16.00
2022-10-26T09:48:10.246Z,16.10
2022-10-26T09:50:54.808Z,16.30
2022-10-26T09:53:29.791Z,16.40
2022-10-26T09:56:08.005Z,16.60
2022-10-26T09:58:45.869Z,16.70
2022-10-26T10:01:38.261Z,16.70
2022-10-26T10:04:18.841Z,16.70
2022-10-26T10:06:54.110Z,16.80
2022-10-26T10:09:22.621Z,16.80
2022-10-26T10:11:58.944Z,16.80
2022-10-26T10:14:37.375Z,16.80
2022-10-26T10:17:22.028Z,16.80
2022-10-26T10:19:49.479Z,16.90
2022-10-26T10:22:19.451Z,16.90
2022-10-26T10:25:00.370Z,16.90
2022-10-26T10:27:28.289Z,16.90
2022-10-26T10:30:03.119Z,16.90
2022-10-26T10:32:37.141Z,16.90
2022-10-26T10:35:30.048Z,16.90
2022-10-26T10:38:20.999Z,17.10
2022-10-26T10:41:03.801Z,17.20
2022-10-26T10:43:30.999Z,17.20
2022-10-26T10:45:59.651Z,17.20
2022-10-26T10:48:29.497Z,17.20
2022-10-26T10:50:59.910Z,17.20
2022-10-26T10:54:16.330Z,17.20
2022-10-26T10:56:52.426Z,17.20
2022-10-26T10:59:37.281Z,17.20
2022-10-26T11:02:45.967Z,17.20
2022-10-26T11:05:28.528Z,17.30
2022-10-26T11:08:10.335Z,17.30
2022-10-26T11:10:41.779Z,17.30
2022-10-26T11:13:36.926Z,17.30
2022-10-26T11:16:06.126Z,17.20
2022-10-26T11:18:54.131Z,17.20
2022-10-26T11:21:29.401Z,17.20
2022-10-26T11:24:36.034Z,17.30
2022-10-26T11:27:16.049Z,17.30
2022-10-26T11:30:13.818Z,17.40
2022-10-26T11:33:09.399Z,17.40
2022-10-26T11:35:45.963Z,17.40
2022-10-26T11:38:33.014Z,17.40
2022-10-26T11:41:29.798Z,17.40
2022-10-26T11:44:31.454Z,17.40
2022-10-26T11:47:17.104Z,17.40
2022-10-26T11:49:52.383Z,17.40
2022-10-26T11:52:26.628Z,17.50
2022-10-26T11:54:54.917Z,17.40
2022-10-26T11:57:25.141Z,17.40
2022-10-26T11:59:54.770Z,17.40
2022-10-26T12:02:26.462Z,17.30
2022-10-26T12:05:00.518Z,17.20
2022-10-26T12:08:28.813Z,17.20
2022-10-26T12:11:33.933Z,17.10
2022-10-26T12:14:12.701Z,17.00
2022-10-26T12:17:07.259Z,17.00
2022-10-26T12:19:43.508Z,17.10
2022-10-26T12:22:17.598Z,17.10
2022-10-26T12:25:10.019Z,17.10
2022-10-26T12:27:39.771Z,17.10
2022-10-26T12:30:19.669Z,17.10
2022-10-26T12:32:51.184Z,17.10
2022-10-26T12:35:46.280Z,17.10
2022-10-26T12:38:29.026Z,17.10
2022-10-26T12:41:11.024Z,17.10
2022-10-26T12:43:40.768Z,17.10
2022-10-26T12:46:14.258Z,17.20
2022-10-26T12:48:45.814Z,17.20
2022-10-26T12:51:25.137Z,17.30
2022-10-26T12:54:11.805Z,17.30
2022-10-26T12:57:10.136Z,17.40
2022-10-26T12:59:54.460Z,17.40
2022-10-26T13:03:04.539Z,17.40
2022-10-26T13:05:49.307Z,17.50
2022-10-26T13:08:22.431Z,17.60
2022-10-26T13:11:07.254Z,17.70
2022-10-26T13:13:39.815Z,17.70
2022-10-26T13:16:10.392Z,17.80
2022-10-26T13:18:51.391Z,17.80
2022-10-26T13:21:25.308Z,17.90
2022-10-26T13:23:58.510Z,17.90
2022-10-26T13:26:35.389Z,17.90
2022-10-26T13:29:07.790Z,17.90
2022-10-26T13:31:38.569Z,17.90
2022-10-26T13:34:16.178Z,17.90
2022-10-26T13:36:51.319Z,17.90
2022-10-26T13:39:37.831Z,17.80
2022-10-26T13:42:12.661Z,17.80
2022-10-26T13:44:51.152Z,17.80
2022-10-26T13:47:27.028Z,17.70
2022-10-26T13:49:55.703Z,17.70
2022-10-26T13:52:31.997Z,17.70
2022-10-26T13:55:14.162Z,17.70
2022-10-26T13:58:05.485Z,17.70
2022-10-26T14:00:32.760Z,17.70
2022-10-26T14:03:11.819Z,17.70
2022-10-26T14:05:42.487Z,17.70
2022-10-26T14:08:14.585Z,17.70
2022-10-26T14:10:58.814Z,17.70
2022-10-26T14:13:27.633Z,17.70
2022-10-26T14:15:55.996Z,17.70
2022-10-26T14:18:32.532Z,17.70
2022-10-26T14:21:17.043Z,17.80
2022-10-26T14:23:52.344Z,17.80
2022-10-26T14:26:35.404Z,17.80
2022-10-26T14:29:02.810Z,17.70
2022-10-26T14:31:35.665Z,17.80
2022-10-26T14:34:04.691Z,17.70
2022-10-26T14:36:40.914Z,17.70
2022-10-26T14:39:09.725Z,17.70
2022-10-26T14:41:41.328Z,17.60
2022-10-26T14:44:18.064Z,17.60
2022-10-26T14:46:48.160Z,17.60
2022-10-26T14:49:20.789Z,17.50
2022-10-26T14:51:56.660Z,17.50
2022-10-26T14:54:25.494Z,17.50
2022-10-26T14:56:53.160Z,17.50
2022-10-26T14:59:25.475Z,17.50
2022-10-26T15:02:11.352Z,17.40
2022-10-26T15:04:42.877Z,17.40
2022-10-26T15:07:13.283Z,17.40
2022-10-26T15:09:47.306Z,17.30
2022-10-26T15:12:27.433Z,17.30
2022-10-26T15:14:56.639Z,17.20
2022-10-26T15:17:32.029Z,17.20
2022-10-26T15:20:05.741Z,17.20
2022-10-26T15:22:33.113Z,17.10
2022-10-26T15:25:02.755Z,17.10
2022-10-26T15:27:29.951Z,17.10
2022-10-26T15:30:30.023Z,17.10
2022-10-26T15:32:57.249Z,17.10
2022-10-26T15:35:27.194Z,17.10
2022-10-26T15:37:55.463Z,17.10
2022-10-26T15:42:55.268Z,17.00
2022-10-26T15:45:24.084Z,17.00
2022-10-26T15:47:52.184Z,17.00
2022-10-26T15:50:21.839Z,16.90
2022-10-26T15:52:49.597Z,16.90
2022-10-26T15:55:17.635Z,16.90
2022-10-26T15:57:45.565Z,16.80
2022-10-26T16:00:17.900Z,16.80
2022-10-26T16:02:46.601Z,16.80
2022-10-26T16:05:16.010Z,16.80
2022-10-26T16:07:44.966Z,16.80
2022-10-26T16:10:19.011Z,16.70
2022-10-26T16:12:46.968Z,16.70
2022-10-26T16:15:22.302Z,16.70
2022-10-26T16:17:50.064Z,16.70
2022-10-26T16:20:27.199Z,16.60
2022-10-26T16:22:54.905Z,16.60
2022-10-26T16:25:24.516Z,16.60
2022-10-26T16:27:52.806Z,16.50
2022-10-26T16:30:20.386Z,16.50
2022-10-26T16:32:47.993Z,16.50
2022-10-26T16:35:15.670Z,16.50
2022-10-26T16:37:42.855Z,16.50
2022-10-26T16:40:10.597Z,16.40
2022-10-26T16:42:37.959Z,16.40
2022-10-26T16:45:05.401Z,16.40
2022-10-26T16:47:35.605Z,16.40
2022-10-26T16:50:03.917Z,16.40
2022-10-26T16:52:31.276Z,16.40
2022-10-26T16:54:58.640Z,16.30
2022-10-26T16:57:26.058Z,16.30
2022-10-26T16:59:53.399Z,16.30
2022-10-26T17:02:24.122Z,16.30
2022-10-26T17:04:51.726Z,16.20
2022-10-26T17:07:21.840Z,16.20
2022-10-26T17:09:48.964Z,16.20
2022-10-26T17:12:16.211Z,16.10
2022-10-26T17:14:43.459Z,16.10
2022-10-26T17:17:10.734Z,16.10
2022-10-26T17:19:40.446Z,16.10
2022-10-26T17:22:11.720Z,16.10
2022-10-26T17:24:39.375Z,16.10
2022-10-26T17:27:06.782Z,16.10
2022-10-26T17:29:36.931Z,16.00
2022-10-26T17:32:05.719Z,16.00
2022-10-26T17:34:35.546Z,16.00
2022-10-26T17:37:03.029Z,16.00
2022-10-26T17:39:33.425Z,15.90
2022-10-26T17:42:01.107Z,15.90
2022-10-26T17:44:28.498Z,15.90
2022-10-26T17:46:58.388Z,15.90
2022-10-26T17:49:28.621Z,15.90
2022-10-26T17:52:00.864Z,15.80
2022-10-26T17:54:28.090Z,15.80
2022-10-26T17:56:57.740Z,15.80
2022-10-26T17:59:24.934Z,15.80
2022-10-26T18:01:52.212Z,15.80
2022-10-26T18:04:19.575Z,15.70
2022-10-26T18:06:46.708Z,15.70
2022-10-26T18:09:13.868Z,15.70
2022-10-26T18:11:41.033Z,15.60
2022-10-26T18:14:08.195Z,15.60
2022-10-26T18:16:35.385Z,15.50
2022-10-26T18:19:04.265Z,15.50
2022-10-26T18:21:33.306Z,15.40
2022-10-26T18:24:00.532Z,15.40
2022-10-26T18:26:28.753Z,15.30
2022-10-26T18:28:56.699Z,15.30
2022-10-26T18:31:24.160Z,15.30
2022-10-26T18:34:01.706Z,15.20
2022-10-26T18:36:28.982Z,15.20
2022-10-26T18:38:56.265Z,15.10
2022-10-26T18:41:23.802Z,15.10
2022-10-26T18:43:52.682Z,15.00
2022-10-26T18:46:23.325Z,15.00
2022-10-26T18:49:00.707Z,15.00
2022-10-26T18:51:32.342Z,14.90
2022-10-26T18:53:59.566Z,14.90
2022-10-26T18:56:27.163Z,14.80
2022-10-26T18:58:56.315Z,14.80
2022-10-26T19:01:25.302Z,14.80
2022-10-26T19:04:03.535Z,14.70
2022-10-26T19:06:50.003Z,14.70
2022-10-26T19:09:17.910Z,14.60
2022-10-26T19:11:45.672Z,14.60
2022-10-26T19:14:13.651Z,14.60
2022-10-26T19:16:45.781Z,14.50
2022-10-26T19:19:14.744Z,14.50
2022-10-26T19:21:41.926Z,14.40
2022-10-26T19:24:27.317Z,14.40
2022-10-26T19:26:54.615Z,14.40
2022-10-26T19:29:21.839Z,14.40
2022-10-26T19:31:51.513Z,14.30
2022-10-26T19:34:18.864Z,14.30
2022-10-26T19:36:46.855Z,14.30
2022-10-26T19:39:15.298Z,14.20
2022-10-26T19:41:42.727Z,14.30
2022-10-26T19:44:10.526Z,14.20
2022-10-26T19:46:38.022Z,14.10
2022-10-26T19:49:05.166Z,14.10
2022-10-26T19:51:32.503Z,14.10
2022-10-26T19:54:03.445Z,14.10
2022-10-26T19:56:32.043Z,14.00
2022-10-26T19:58:59.230Z,14.00
2022-10-26T20:01:26.502Z,14.00
2022-10-26T20:03:53.707Z,13.90
2022-10-26T20:06:20.951Z,13.90
2022-10-26T20:08:48.526Z,13.90
2022-10-26T20:11:16.881Z,13.80
2022-10-26T20:13:44.930Z,13.80
2022-10-26T20:16:12.507Z,13.80
2022-10-26T20:18:42.731Z,13.80
2022-10-26T20:21:15.807Z,13.80
2022-10-26T20:23:43.223Z,13.80
2022-10-26T20:26:16.355Z,13.70
2022-10-26T20:28:47.884Z,13.70
2022-10-26T20:31:15.078Z,13.70
2022-10-26T20:33:42.324Z,13.60
2022-10-26T20:36:09.559Z,13.60
2022-10-26T20:38:37.036Z,13.60
2022-10-26T20:41:07.715Z,13.50
2022-10-26T20:43:38.516Z,13.50
2022-10-26T20:46:10.122Z,13.50
2022-10-26T20:48:38.532Z,13.50
2022-10-26T20:51:29.993Z,13.40
2022-10-26T20:54:07.207Z,13.40
2022-10-26T20:56:34.589Z,13.40
2022-10-26T20:59:01.798Z,13.30
2022-10-26T21:01:33.448Z,13.30
2022-10-26T21:04:02.542Z,13.30
2022-10-26T21:06:30.296Z,13.30
2022-10-26T21:08:57.567Z,13.30
2022-10-26T21:11:25.116Z,13.20
2022-10-26T21:13:53.315Z,13.20
2022-10-26T21:18:47.820Z,13.30
2022-10-26T21:21:15.066Z,13.20
2022-10-26T21:23:42.351Z,13.30
2022-10-26T21:26:09.628Z,13.20
2022-10-26T21:28:38.205Z,13.20
2022-10-26T21:31:06.207Z,13.20
2022-10-26T21:33:33.400Z,13.20
2022-10-26T21:36:01.151Z,13.20
2022-10-26T21:38:28.777Z,13.20
2022-10-26T21:41:13.033Z,13.10
2022-10-26T21:43:41.041Z,13.10
2022-10-26T21:46:08.747Z,13.10
2022-10-26T21:48:36.125Z,13.10
2022-10-26T21:51:07.589Z,13.20
2022-10-26T21:53:34.798Z,13.10
2022-10-26T21:56:02.734Z,13.10
2022-10-26T21:58:30.054Z,13.10
2022-10-26T22:01:11.030Z,13.10
2022-10-26T22:03:38.638Z,13.00
2022-10-26T22:06:06.472Z,13.00
2022-10-26T22:08:33.676Z,13.00
2022-10-26T22:11:15.664Z,13.00
2022-10-26T22:13:43.985Z,12.90
2022-10-26T22:16:15.999Z,13.00
2022-10-26T22:18:44.124Z,13.00
2022-10-26T22:21:11.914Z,12.90
2022-10-26T22:23:39.910Z,12.90
2022-10-26T22:26:18.326Z,12.90
2022-10-26T22:28:46.036Z,12.90
2022-10-26T22:31:15.490Z,12.80
2022-10-26T22:33:42.783Z,12.80
2022-10-26T22:36:14.080Z,12.80
2022-10-26T22:38:42.043Z,12.70
2022-10-26T22:41:09.564Z,12.80
2022-10-26T22:43:36.967Z,12.70
2022-10-26T22:46:11.988Z,12.70
2022-10-26T22:48:39.312Z,12.70
2022-10-26T22:51:07.761Z,12.60
2022-10-26T22:53:34.973Z,12.60
2022-10-26T22:56:02.546Z,12.70
2022-10-26T22:58:29.796Z,12.70
2022-10-26T23:01:11.530Z,12.70
2022-10-26T23:03:38.855Z,12.60
2022-10-26T23:06:10.870Z,12.60
2022-10-26T23:08:38.073Z,12.60
2022-10-26T23:11:07.074Z,12.60
2022-10-26T23:13:34.209Z,12.60
2022-10-26T23:16:19.618Z,12.60
2022-10-26T23:18:47.378Z,12.60
2022-10-26T23:21:16.332Z,12.60
2022-10-26T23:23:43.572Z,12.60
2022-10-26T23:26:15.576Z,12.60
2022-10-26T23:28:43.075Z,12.60
2022-10-26T23:31:16.427Z,12.60
2022-10-26T23:33:43.950Z,12.60
2022-10-26T23:36:11.261Z,12.50
2022-10-26T23:38:38.383Z,12.50
2022-10-26T23:41:07.202Z,12.50
2022-10-26T23:43:36.710Z,12.50
2022-10-26T23:46:03.972Z,12.40
2022-10-26T23:48:31.118Z,12.40
2022-10-26T23:50:58.272Z,12.40
2022-10-26T23:53:25.644Z,12.30
2022-10-26T23:55:52.967Z,12.30
2022-10-26T23:58:20.175Z,12.30
